createdAt,value
2022-08-26T00:01:57.497Z,23.63
2022-08-26T00:04:30.350Z,23.64
2022-08-26T00:07:02.190Z,23.66
2022-08-26T00:09:37.344Z,23.66
2022-08-26T00:12:12.246Z,23.65
2022-08-26T00:14:44.668Z,23.61
2022-08-26T00:17:16.412Z,23.57
2022-08-26T00:19:48.038Z,23.57
2022-08-26T00:22:21.478Z,23.53
2022-08-26T00:24:53.545Z,23.53
2022-08-26T00:27:25.318Z,23.53
2022-08-26T00:29:57.919Z,23.53
2022-08-26T00:32:29.621Z,23.54
2022-08-26T00:35:01.308Z,23.52
2022-08-26T00:37:33.702Z,23.47
2022-08-26T00:40:11.952Z,23.48
2022-08-26T00:42:46.264Z,23.51
2022-08-26T00:45:19.644Z,23.50
2022-08-26T00:47:54.210Z,23.46
2022-08-26T00:50:30.672Z,23.39
2022-08-26T00:53:21.437Z,23.33
2022-08-26T00:56:04.797Z,23.35
2022-08-26T00:58:42.926Z,23.25
2022-08-26T01:01:15.819Z,23.31
2022-08-26T01:03:48.363Z,23.34
2022-08-26T01:06:20.716Z,23.36
2022-08-26T01:08:53.298Z,23.36
2022-08-26T01:11:25.675Z,23.34
2022-08-26T01:14:02.045Z,23.30
2022-08-26T01:16:35.439Z,23.30
2022-08-26T01:19:09.132Z,23.29
2022-08-26T01:21:47.856Z,23.25
2022-08-26T01:24:20.270Z,23.24
2022-08-26T01:26:53.527Z,23.20
2022-08-26T01:29:26.193Z,23.19
2022-08-26T01:31:57.286Z,23.18
2022-08-26T01:34:32.055Z,23.16
2022-08-26T01:37:10.173Z,23.15
2022-08-26T01:39:51.134Z,23.11
2022-08-26T01:42:25.864Z,22.89
2022-08-26T01:45:02.010Z,22.81
2022-08-26T01:47:37.487Z,22.76
2022-08-26T01:50:15.801Z,22.77
2022-08-26T01:53:02.389Z,22.60
2022-08-26T01:55:35.427Z,22.65
2022-08-26T01:58:23.745Z,22.62
2022-08-26T02:00:55.391Z,22.44
2022-08-26T02:03:28.267Z,22.32
2022-08-26T02:06:03.869Z,22.22
2022-08-26T02:08:39.988Z,22.18
2022-08-26T02:11:12.531Z,22.25
2022-08-26T02:13:46.116Z,22.22
2022-08-26T02:16:21.419Z,22.24
2022-08-26T02:18:54.825Z,22.26
2022-08-26T02:21:26.898Z,22.32
2022-08-26T02:24:08.459Z,22.28
2022-08-26T02:26:41.825Z,22.37
2022-08-26T02:29:21.413Z,22.32
2022-08-26T02:31:55.784Z,22.29
2022-08-26T02:34:31.914Z,22.23
2022-08-26T02:37:06.415Z,22.18
2022-08-26T02:39:41.012Z,22.08
2022-08-26T02:42:13.105Z,22.11
2022-08-26T02:44:45.393Z,22.15
2022-08-26T02:47:18.231Z,22.18
2022-08-26T02:49:50.132Z,22.19
2022-08-26T02:52:22.080Z,22.18
2022-08-26T02:54:54.257Z,22.10
2022-08-26T02:57:26.957Z,22.03
2022-08-26T02:59:59.102Z,21.91
2022-08-26T03:02:32.049Z,21.87
2022-08-26T03:05:04.717Z,21.93
2022-08-26T03:07:36.413Z,21.91
2022-08-26T03:10:08.939Z,21.84
2022-08-26T03:12:41.399Z,21.62
2022-08-26T03:15:17.831Z,21.77
2022-08-26T03:17:50.679Z,21.67
2022-08-26T03:20:20.920Z,21.54
2022-08-26T03:22:53.371Z,21.75
2022-08-26T03:25:28.181Z,21.85
2022-08-26T03:28:00.211Z,21.83
2022-08-26T03:30:45.444Z,21.93
2022-08-26T03:33:19.102Z,21.89
2022-08-26T03:35:52.163Z,21.99
2022-08-26T03:38:26.166Z,22.03
2022-08-26T03:40:58.320Z,22.06
2022-08-26T03:43:30.126Z,22.08
2022-08-26T03:46:05.408Z,22.08
2022-08-26T03:48:37.558Z,22.14
2022-08-26T03:51:18.161Z,22.14
2022-08-26T03:53:50.441Z,22.13
2022-08-26T03:56:22.350Z,22.13
2022-08-26T03:58:54.770Z,22.08
2022-08-26T04:01:26.496Z,22.16
2022-08-26T04:04:00.100Z,22.16
2022-08-26T04:06:36.164Z,22.18
2022-08-26T04:09:11.032Z,22.19
2022-08-26T04:11:44.724Z,22.16
2022-08-26T04:14:20.244Z,22.18
2022-08-26T04:16:53.572Z,22.18
2022-08-26T04:19:27.695Z,22.18
2022-08-26T04:21:59.654Z,22.05
2022-08-26T04:24:33.014Z,22.00
2022-08-26T04:27:05.034Z,22.05
2022-08-26T04:29:41.594Z,22.05
2022-08-26T04:32:13.588Z,22.08
2022-08-26T04:34:45.513Z,22.07
2022-08-26T04:37:18.425Z,22.06
2022-08-26T04:39:54.037Z,21.95
2022-08-26T04:42:26.345Z,21.89
2022-08-26T04:44:58.864Z,21.97
2022-08-26T04:47:32.471Z,22.05
2022-08-26T04:50:04.889Z,22.04
2022-08-26T04:52:39.390Z,22.03
2022-08-26T04:55:12.341Z,21.99
2022-08-26T04:57:45.745Z,21.92
2022-08-26T05:00:18.588Z,21.97
2022-08-26T05:02:51.481Z,21.92
2022-08-26T05:05:23.444Z,21.92
2022-08-26T05:07:55.276Z,21.85
2022-08-26T05:10:27.721Z,21.89
2022-08-26T05:13:00.300Z,21.74
2022-08-26T05:15:32.338Z,21.76
2022-08-26T05:18:04.809Z,21.62
2022-08-26T05:20:42.059Z,21.58
2022-08-26T05:23:14.400Z,21.71
2022-08-26T05:25:46.286Z,21.80
2022-08-26T05:28:19.780Z,21.89
2022-08-26T05:30:52.441Z,21.92
2022-08-26T05:33:23.105Z,21.90
2022-08-26T05:35:54.877Z,21.89
2022-08-26T05:38:30.305Z,21.96
2022-08-26T05:41:02.372Z,21.99
2022-08-26T05:43:35.268Z,22.06
2022-08-26T05:46:10.008Z,22.12
2022-08-26T05:48:44.275Z,22.14
2022-08-26T05:51:16.272Z,22.14
2022-08-26T05:53:54.557Z,22.11
2022-08-26T05:56:27.906Z,22.17
2022-08-26T05:59:02.682Z,22.09
2022-08-26T06:01:36.696Z,22.14
2022-08-26T06:04:09.122Z,22.11
2022-08-26T06:06:41.629Z,22.08
2022-08-26T06:09:15.053Z,22.14
2022-08-26T06:11:50.029Z,22.15
2022-08-26T06:14:21.693Z,22.23
2022-08-26T06:16:53.604Z,22.19
2022-08-26T06:19:25.706Z,22.26
2022-08-26T06:22:24.937Z,22.32
2022-08-26T06:25:15.507Z,22.38
2022-08-26T06:27:48.861Z,22.34
2022-08-26T06:30:21.136Z,22.43
2022-08-26T06:32:54.348Z,22.38
2022-08-26T06:35:26.928Z,22.51
2022-08-26T06:37:58.808Z,22.57
2022-08-26T06:40:31.162Z,22.49
2022-08-26T06:43:02.895Z,22.61
2022-08-26T06:45:34.756Z,22.67
2022-08-26T06:48:08.570Z,22.78
2022-08-26T06:50:42.053Z,22.83
2022-08-26T06:53:15.388Z,22.82
2022-08-26T06:55:48.321Z,22.82
2022-08-26T06:58:23.565Z,22.87
2022-08-26T07:01:01.985Z,22.91
2022-08-26T07:03:39.480Z,22.94
2022-08-26T07:06:12.043Z,22.99
2022-08-26T07:08:43.989Z,23.06
2022-08-26T07:11:16.036Z,23.15
2022-08-26T07:13:48.889Z,23.13
2022-08-26T07:16:21.908Z,23.09
2022-08-26T07:18:56.145Z,23.16
2022-08-26T07:21:29.598Z,23.20
2022-08-26T07:24:01.783Z,23.20
2022-08-26T07:26:33.750Z,23.21
2022-08-26T07:29:06.853Z,23.19
2022-08-26T07:31:43.012Z,23.29
2022-08-26T07:34:14.998Z,23.38
2022-08-26T07:36:46.708Z,23.47
2022-08-26T07:39:20.924Z,23.48
2022-08-26T07:41:52.657Z,23.53
2022-08-26T07:44:24.623Z,23.59
2022-08-26T07:46:56.556Z,23.61
2022-08-26T07:49:29.655Z,23.65
2022-08-26T07:52:02.373Z,23.69
2022-08-26T07:54:32.473Z,23.77
2022-08-26T07:57:05.084Z,23.74
2022-08-26T07:59:40.255Z,23.81
2022-08-26T08:02:12.112Z,23.86
2022-08-26T08:04:43.829Z,23.90
2022-08-26T08:07:16.346Z,23.99
2022-08-26T08:09:49.534Z,24.03
2022-08-26T08:12:21.796Z,24.11
2022-08-26T08:14:53.604Z,24.18
2022-08-26T08:17:25.362Z,24.22
2022-08-26T08:19:57.140Z,24.28
2022-08-26T08:22:28.280Z,24.31
2022-08-26T08:25:00.104Z,24.37
2022-08-26T08:27:37.940Z,24.44
2022-08-26T08:30:13.722Z,24.48
2022-08-26T08:32:46.273Z,24.52
2022-08-26T08:35:21.123Z,24.59
2022-08-26T08:37:54.801Z,24.64
2022-08-26T08:40:29.248Z,24.70
2022-08-26T08:43:06.466Z,24.74
2022-08-26T08:45:43.444Z,24.79
2022-08-26T08:48:27.331Z,24.86
2022-08-26T08:51:08.572Z,24.92
2022-08-26T08:53:43.530Z,25.00
2022-08-26T08:56:25.487Z,25.10
2022-08-26T08:59:14.019Z,25.20
2022-08-26T09:01:56.560Z,25.23
2022-08-26T09:05:15.126Z,25.30
2022-08-26T09:07:50.304Z,25.38
2022-08-26T09:10:35.501Z,25.46
2022-08-26T09:13:16.354Z,25.54
2022-08-26T09:15:57.659Z,25.72
2022-08-26T09:18:46.133Z,25.83
2022-08-26T09:21:21.086Z,25.97
2022-08-26T09:23:57.032Z,26.06
2022-08-26T09:26:31.286Z,26.11
2022-08-26T09:29:05.261Z,26.21
2022-08-26T09:31:39.069Z,26.27
2022-08-26T09:34:19.137Z,26.33
2022-08-26T09:36:53.658Z,26.51
2022-08-26T09:39:37.897Z,26.71
2022-08-26T09:42:14.309Z,26.84
2022-08-26T09:45:00.473Z,27.02
2022-08-26T09:47:34.937Z,27.10
2022-08-26T09:50:13.216Z,27.22
2022-08-26T09:52:45.078Z,27.40
2022-08-26T09:55:23.097Z,27.46
2022-08-26T09:57:58.208Z,27.60
2022-08-26T10:00:35.050Z,27.72
2022-08-26T10:03:23.396Z,27.78
2022-08-26T10:06:01.146Z,28.02
2022-08-26T10:08:37.103Z,28.09
2022-08-26T10:11:18.836Z,28.15
2022-08-26T10:13:55.812Z,28.25
2022-08-26T10:16:33.272Z,28.31
2022-08-26T10:19:13.855Z,28.43
2022-08-26T10:21:54.890Z,28.52
2022-08-26T10:24:32.896Z,28.71
2022-08-26T10:27:23.908Z,28.77
2022-08-26T10:30:05.020Z,28.89
2022-08-26T10:32:41.863Z,29.00
2022-08-26T10:35:16.918Z,29.20
2022-08-26T10:37:53.567Z,29.39
2022-08-26T10:40:29.394Z,29.50
2022-08-26T10:43:11.414Z,29.63
2022-08-26T10:45:48.973Z,29.75
2022-08-26T10:48:35.561Z,29.87
2022-08-26T10:51:09.260Z,30.02
2022-08-26T10:53:51.406Z,30.00
2022-08-26T10:56:41.231Z,30.10
2022-08-26T10:59:24.665Z,30.08
2022-08-26T11:02:08.756Z,30.23
2022-08-26T11:04:49.522Z,30.37
2022-08-26T11:07:43.840Z,30.44
2022-08-26T11:11:04.728Z,30.55
2022-08-26T11:14:02.726Z,30.66
2022-08-26T11:16:43.232Z,30.64
2022-08-26T11:20:00.826Z,30.72
2022-08-26T11:22:38.039Z,30.88
2022-08-26T11:25:19.889Z,31.07
2022-08-26T11:28:00.755Z,31.14
2022-08-26T11:30:57.774Z,31.23
2022-08-26T11:33:51.195Z,31.27
2022-08-26T11:36:56.484Z,31.40
2022-08-26T11:39:36.814Z,31.48
2022-08-26T11:42:27.803Z,31.55
2022-08-26T11:45:04.719Z,31.62
2022-08-26T11:47:37.701Z,31.67
2022-08-26T11:50:12.678Z,31.63
2022-08-26T11:52:53.709Z,31.66
2022-08-26T11:55:25.595Z,31.60
2022-08-26T11:58:00.900Z,31.63
2022-08-26T12:00:40.192Z,31.72
2022-08-26T12:03:22.916Z,31.73
2022-08-26T12:05:57.211Z,31.80
2022-08-26T12:08:34.431Z,31.89
2022-08-26T12:11:10.060Z,31.90
2022-08-26T12:13:42.748Z,31.81
2022-08-26T12:16:26.523Z,31.80
2022-08-26T12:18:58.837Z,31.86
2022-08-26T12:21:34.814Z,31.82
2022-08-26T12:24:07.535Z,31.73
2022-08-26T12:26:40.497Z,31.87
2022-08-26T12:29:26.868Z,31.90
2022-08-26T12:32:13.530Z,31.86
2022-08-26T12:34:49.014Z,31.77
2022-08-26T12:37:21.117Z,31.85
2022-08-26T12:39:52.927Z,31.86
2022-08-26T12:42:43.079Z,31.75
2022-08-26T12:45:27.250Z,31.69
2022-08-26T12:48:02.334Z,31.80
2022-08-26T12:50:37.129Z,31.84
2022-08-26T12:53:21.085Z,31.90
2022-08-26T12:55:56.163Z,31.97
2022-08-26T12:58:31.677Z,31.92
2022-08-26T13:01:23.610Z,31.90
2022-08-26T13:03:54.450Z,31.94
2022-08-26T13:06:31.400Z,31.94
2022-08-26T13:09:06.333Z,31.85
2022-08-26T13:12:02.161Z,31.92
2022-08-26T13:14:34.365Z,31.96
2022-08-26T13:17:06.445Z,31.99
2022-08-26T13:19:38.249Z,31.98
2022-08-26T13:22:12.969Z,31.91
2022-08-26T13:24:46.147Z,31.92
2022-08-26T13:27:20.566Z,31.89
2022-08-26T13:29:53.029Z,31.95
2022-08-26T13:32:27.283Z,32.00
2022-08-26T13:35:00.467Z,31.96
2022-08-26T13:37:37.458Z,32.09
2022-08-26T13:40:11.291Z,32.19
2022-08-26T13:42:49.900Z,32.21
2022-08-26T13:45:22.020Z,32.15
2022-08-26T13:47:53.821Z,32.07
2022-08-26T13:50:25.533Z,32.11
2022-08-26T13:52:57.370Z,32.12
2022-08-26T13:55:29.530Z,32.23
2022-08-26T13:57:59.845Z,32.29
2022-08-26T14:00:32.350Z,32.20
2022-08-26T14:03:04.596Z,32.24
2022-08-26T14:05:36.476Z,32.20
2022-08-26T14:08:08.725Z,32.19
2022-08-26T14:10:39.233Z,32.25
2022-08-26T14:13:10.923Z,32.21
2022-08-26T14:15:43.072Z,32.26
2022-08-26T14:18:16.072Z,32.25
2022-08-26T14:20:51.470Z,32.16
2022-08-26T14:23:23.452Z,32.25
2022-08-26T14:25:54.484Z,32.27
2022-08-26T14:31:03.666Z,32.46
2022-08-26T14:33:38.214Z,32.51
2022-08-26T14:36:29.048Z,32.49
2022-08-26T14:39:04.259Z,32.40
2022-08-26T14:41:39.416Z,32.52
2022-08-26T14:44:16.224Z,32.51
2022-08-26T14:46:50.532Z,32.55
2022-08-26T14:49:24.155Z,32.59
2022-08-26T14:51:56.431Z,32.61
2022-08-26T14:54:26.681Z,32.75
2022-08-26T14:57:01.382Z,32.88
2022-08-26T14:59:35.667Z,32.78
2022-08-26T15:02:08.997Z,32.83
2022-08-26T15:04:45.513Z,32.97
2022-08-26T15:07:17.313Z,32.99
2022-08-26T15:09:49.185Z,32.95
2022-08-26T15:12:21.171Z,33.02
2022-08-26T15:14:53.010Z,33.06
2022-08-26T15:17:24.948Z,33.15
2022-08-26T15:19:56.768Z,33.28
2022-08-26T15:22:29.844Z,33.37
2022-08-26T15:25:02.231Z,33.45
2022-08-26T15:27:34.499Z,33.31
2022-08-26T15:30:07.969Z,33.28
2022-08-26T15:32:40.520Z,33.27
2022-08-26T15:35:12.661Z,33.32
2022-08-26T15:37:44.506Z,33.37
2022-08-26T15:40:18.403Z,33.19
2022-08-26T15:43:01.219Z,33.10
2022-08-26T15:45:43.380Z,33.00
2022-08-26T15:48:16.269Z,32.98
2022-08-26T15:50:54.107Z,32.89
2022-08-26T15:53:26.899Z,32.93
2022-08-26T15:55:59.772Z,33.06
2022-08-26T15:58:31.838Z,33.15
2022-08-26T16:01:04.485Z,33.02
2022-08-26T16:03:36.767Z,33.01
2022-08-26T16:06:07.499Z,33.32
2022-08-26T16:08:39.910Z,33.40
2022-08-26T16:11:11.960Z,33.32
2022-08-26T16:13:42.169Z,33.57
2022-08-26T16:16:14.644Z,33.50
2022-08-26T16:18:46.977Z,33.41
2022-08-26T16:21:20.668Z,33.25
2022-08-26T16:23:53.339Z,33.06
2022-08-26T16:26:28.177Z,32.90
2022-08-26T16:29:00.033Z,32.55
2022-08-26T16:31:32.233Z,32.36
2022-08-26T16:34:04.103Z,32.16
2022-08-26T16:36:37.022Z,31.91
2022-08-26T16:39:10.597Z,31.65
2022-08-26T16:41:42.440Z,31.48
2022-08-26T16:44:14.554Z,31.37
2022-08-26T16:46:47.153Z,31.31
2022-08-26T16:49:19.117Z,31.12
2022-08-26T16:51:50.864Z,30.96
2022-08-26T16:54:22.614Z,30.81
2022-08-26T16:56:54.387Z,30.77
2022-08-26T16:59:26.228Z,30.62
2022-08-26T17:01:58.243Z,30.54
2022-08-26T17:04:28.701Z,30.46
2022-08-26T17:07:00.658Z,30.31
2022-08-26T17:09:32.947Z,30.23
2022-08-26T17:12:03.219Z,30.21
2022-08-26T17:14:34.973Z,30.13
2022-08-26T17:17:07.044Z,30.03
2022-08-26T17:19:46.856Z,29.97
2022-08-26T17:22:19.808Z,29.85
2022-08-26T17:24:51.632Z,29.75
2022-08-26T17:27:23.597Z,29.60
2022-08-26T17:29:55.267Z,29.47
2022-08-26T17:32:27.078Z,29.39
2022-08-26T17:34:59.174Z,29.31
2022-08-26T17:37:30.859Z,29.22
2022-08-26T17:40:03.115Z,29.08
2022-08-26T17:42:37.625Z,28.98
2022-08-26T17:45:11.435Z,28.95
2022-08-26T17:47:44.088Z,28.88
2022-08-26T17:50:18.105Z,28.80
2022-08-26T17:52:50.007Z,28.72
2022-08-26T17:55:22.195Z,28.71
2022-08-26T17:57:54.519Z,28.62
2022-08-26T18:00:28.328Z,28.58
2022-08-26T18:03:01.332Z,28.55
2022-08-26T18:05:33.112Z,28.50
2022-08-26T18:08:05.489Z,28.37
2022-08-26T18:10:37.756Z,28.29
2022-08-26T18:13:09.729Z,28.24
2022-08-26T18:15:45.302Z,28.03
2022-08-26T18:18:17.588Z,27.80
2022-08-26T18:20:52.529Z,27.76
2022-08-26T18:23:33.488Z,27.67
2022-08-26T18:26:05.447Z,27.69
2022-08-26T18:28:37.340Z,27.61
2022-08-26T18:31:14.354Z,27.59
2022-08-26T18:33:46.895Z,27.55
2022-08-26T18:36:22.020Z,27.49
2022-08-26T18:38:54.481Z,27.42
2022-08-26T18:41:29.141Z,27.36
2022-08-26T18:44:01.567Z,27.38
2022-08-26T18:46:31.965Z,27.29
2022-08-26T18:49:05.050Z,27.21
2022-08-26T18:51:37.914Z,27.17
2022-08-26T18:54:11.604Z,27.11
2022-08-26T18:56:43.881Z,27.12
2022-08-26T18:59:17.424Z,27.12
2022-08-26T19:01:50.706Z,26.98
2022-08-26T19:04:23.151Z,26.97
2022-08-26T19:06:57.061Z,26.95
2022-08-26T19:09:31.632Z,26.82
2022-08-26T19:12:05.134Z,26.67
2022-08-26T19:14:37.379Z,26.77
2022-08-26T19:17:09.540Z,26.79
2022-08-26T19:19:41.358Z,26.74
2022-08-26T19:22:13.314Z,26.55
2022-08-26T19:24:45.133Z,26.52
2022-08-26T19:27:17.496Z,26.53
2022-08-26T19:29:49.506Z,26.58
2022-08-26T19:32:24.258Z,26.58
2022-08-26T19:34:56.732Z,26.54
2022-08-26T19:37:27.041Z,26.46
2022-08-26T19:40:01.269Z,26.44
2022-08-26T19:42:33.058Z,26.44
2022-08-26T19:45:24.309Z,26.43
2022-08-26T19:47:58.414Z,26.40
2022-08-26T19:50:32.739Z,26.34
2022-08-26T19:53:05.941Z,26.23
2022-08-26T19:55:38.089Z,26.27
2022-08-26T19:58:11.759Z,26.24
2022-08-26T20:00:43.754Z,26.18
2022-08-26T20:03:16.197Z,26.18
2022-08-26T20:05:49.344Z,26.06
2022-08-26T20:08:22.565Z,26.15
2022-08-26T20:10:55.142Z,26.14
2022-08-26T20:13:26.915Z,26.09
2022-08-26T20:15:59.117Z,25.99
2022-08-26T20:18:45.177Z,25.93
2022-08-26T20:21:29.405Z,25.83
2022-08-26T20:24:04.047Z,25.87
2022-08-26T20:26:38.188Z,25.90
2022-08-26T20:29:12.101Z,25.85
2022-08-26T20:31:45.148Z,25.68
2022-08-26T20:34:19.708Z,25.67
2022-08-26T20:36:52.346Z,25.77
2022-08-26T20:39:23.432Z,25.76
2022-08-26T20:41:55.691Z,25.58
2022-08-26T20:44:28.924Z,25.53
2022-08-26T20:47:00.786Z,25.39
2022-08-26T20:49:33.204Z,25.54
2022-08-26T20:52:07.321Z,25.54
2022-08-26T20:54:39.129Z,25.59
2022-08-26T20:57:11.073Z,25.39
2022-08-26T20:59:43.613Z,25.43
2022-08-26T21:02:13.883Z,25.34
2022-08-26T21:04:45.766Z,25.43
2022-08-26T21:07:17.738Z,25.42
2022-08-26T21:09:49.647Z,25.39
2022-08-26T21:12:23.619Z,25.37
2022-08-26T21:14:55.460Z,25.30
2022-08-26T21:17:27.455Z,25.20
2022-08-26T21:19:59.310Z,25.19
2022-08-26T21:22:31.674Z,25.09
2022-08-26T21:25:04.258Z,25.11
2022-08-26T21:27:37.427Z,25.13
2022-08-26T21:30:11.996Z,25.11
2022-08-26T21:32:44.436Z,25.06
2022-08-26T21:35:14.739Z,25.02
2022-08-26T21:37:46.614Z,24.98
2022-08-26T21:40:18.776Z,24.89
2022-08-26T21:42:50.864Z,24.92
2022-08-26T21:45:23.050Z,24.87
2022-08-26T21:47:54.909Z,24.84
2022-08-26T21:50:29.535Z,24.93
2022-08-26T21:53:01.254Z,24.85
2022-08-26T21:55:38.606Z,24.87
2022-08-26T21:58:10.977Z,24.73
2022-08-26T22:00:49.512Z,24.76
2022-08-26T22:03:21.400Z,24.77
2022-08-26T22:05:53.784Z,24.70
2022-08-26T22:08:28.035Z,24.71
2022-08-26T22:11:01.310Z,24.76
2022-08-26T22:13:37.709Z,24.69
2022-08-26T22:16:11.398Z,24.65
2022-08-26T22:18:43.850Z,24.61
2022-08-26T22:21:18.412Z,24.65
2022-08-26T22:23:50.380Z,24.63
2022-08-26T22:26:25.765Z,24.60
2022-08-26T22:29:00.084Z,24.60
2022-08-26T22:31:38.362Z,24.48
2022-08-26T22:34:13.236Z,24.38
2022-08-26T22:36:47.070Z,24.33
2022-08-26T22:39:22.688Z,24.30
2022-08-26T22:41:55.260Z,24.36
2022-08-26T22:44:25.599Z,24.26
2022-08-26T22:46:57.359Z,24.33
2022-08-26T22:49:29.745Z,24.33
2022-08-26T22:52:01.674Z,24.27
2022-08-26T22:54:33.503Z,24.29
2022-08-26T22:57:05.573Z,24.31
2022-08-26T22:59:37.514Z,24.30
2022-08-26T23:02:09.304Z,24.32
2022-08-26T23:04:44.375Z,24.17
2022-08-26T23:07:16.485Z,24.15
2022-08-26T23:09:48.340Z,24.12
2022-08-26T23:12:20.119Z,24.06
2022-08-26T23:14:52.186Z,24.14
2022-08-26T23:17:24.050Z,24.12
2022-08-26T23:19:58.200Z,23.96
2022-08-26T23:22:28.496Z,23.99
2022-08-26T23:25:00.402Z,23.95
2022-08-26T23:27:32.344Z,23.90
2022-08-26T23:30:04.527Z,23.90
2022-08-26T23:32:36.485Z,23.89
2022-08-26T23:35:10.813Z,23.82
2022-08-26T23:37:48.125Z,23.77
2022-08-26T23:40:26.341Z,23.80
2022-08-26T23:43:00.611Z,23.83
2022-08-26T23:45:32.976Z,23.78
2022-08-26T23:48:05.269Z,23.73
2022-08-26T23:50:54.981Z,23.68
2022-08-26T23:53:27.076Z,23.64
2022-08-26T23:55:58.858Z,23.76
2022-08-26T23:58:30.749Z,23.68
